sensor_id;sensor_type;location;lat;lon;timestamp;P1;durP1;ratioP1;P2;durP2;ratioP2
23642;SDS011;11998;55.788;37.572;2023-02-28T00:00:55;10.00;;;7.00;;
23642;SDS011;11998;55.788;37.572;2023-02-28T00:01:55;9.83;;;6.93;;
23642;SDS011;11998;55.788;37.572;2023-02-28T00:02:56;11.13;;;7.17;;
23642;SDS011;11998;55.788;37.572;2023-02-28T00:03:56;8.40;;;6.60;;
23642;SDS011;11998;55.788;37.572;2023-02-28T00:04:57;10.23;;;6.87;;
23642;SDS011;11998;55.788;37.572;2023-02-28T00:06:01;10.85;;;7.55;;
23642;SDS011;11998;55.788;37.572;2023-02-28T00:07:05;11.57;;;7.75;;
23642;SDS011;11998;55.788;37.572;2023-02-28T00:08:06;11.13;;;7.53;;
23642;SDS011;11998;55.788;37.572;2023-02-28T00:09:07;9.95;;;7.22;;
23642;SDS011;11998;55.788;37.572;2023-02-28T00:10:08;11.47;;;7.77;;
23642;SDS011;11998;55.788;37.572;2023-02-28T00:11:11;11.23;;;6.88;;
23642;SDS011;11998;55.788;37.572;2023-02-28T00:12:13;12.02;;;7.85;;
23642;SDS011;11998;55.788;37.572;2023-02-28T00:13:14;13.40;;;8.07;;
23642;SDS011;11998;55.788;37.572;2023-02-28T00:14:14;11.13;;;7.40;;
23642;SDS011;11998;55.788;37.572;2023-02-28T00:15:15;10.47;;;7.13;;
23642;SDS011;11998;55.788;37.572;2023-02-28T00:16:18;11.55;;;7.38;;
23642;SDS011;11998;55.788;37.572;2023-02-28T00:17:20;10.07;;;7.53;;
23642;SDS011;11998;55.788;37.572;2023-02-28T00:18:21;10.95;;;7.32;;
23642;SDS011;11998;55.788;37.572;2023-02-28T00:19:22;10.60;;;6.90;;
23642;SDS011;11998;55.788;37.572;2023-02-28T00:20:23;11.13;;;7.43;;
23642;SDS011;11998;55.788;37.572;2023-02-28T00:21:24;8.55;;;6.57;;
23642;SDS011;11998;55.788;37.572;2023-02-28T00:22:25;11.00;;;7.23;;
23642;SDS011;11998;55.788;37.572;2023-02-28T00:23:26;10.33;;;7.13;;
23642;SDS011;11998;55.788;37.572;2023-02-28T00:24:27;9.30;;;6.75;;
23642;SDS011;11998;55.788;37.572;2023-02-28T00:25:28;10.70;;;7.07;;
23642;SDS011;11998;55.788;37.572;2023-02-28T00:26:28;12.07;;;8.00;;
23642;SDS011;11998;55.788;37.572;2023-02-28T00:27:29;13.10;;;7.10;;
23642;SDS011;11998;55.788;37.572;2023-02-28T00:28:30;10.63;;;7.45;;
23642;SDS011;11998;55.788;37.572;2023-02-28T00:29:31;10.80;;;7.00;;
23642;SDS011;11998;55.788;37.572;2023-02-28T00:30:31;17.77;;;11.87;;
23642;SDS011;11998;55.788;37.572;2023-02-28T00:31:32;75.67;;;43.07;;
23642;SDS011;11998;55.788;37.572;2023-02-28T00:32:32;41.13;;;25.27;;
23642;SDS011;11998;55.788;37.572;2023-02-28T00:33:34;23.88;;;15.52;;
23642;SDS011;11998;55.788;37.572;2023-02-28T00:34:35;9.03;;;7.27;;
23642;SDS011;11998;55.788;37.572;2023-02-28T00:35:37;13.07;;;8.57;;
23642;SDS011;11998;55.788;37.572;2023-02-28T00:36:38;13.17;;;9.37;;
23642;SDS011;11998;55.788;37.572;2023-02-28T00:37:39;12.37;;;8.00;;
23642;SDS011;11998;55.788;37.572;2023-02-28T00:38:39;11.03;;;7.97;;
23642;SDS011;11998;55.788;37.572;2023-02-28T00:39:41;10.98;;;7.38;;
23642;SDS011;11998;55.788;37.572;2023-02-28T00:40:41;9.90;;;6.50;;
23642;SDS011;11998;55.788;37.572;2023-02-28T00:41:44;10.82;;;7.05;;
23642;SDS011;11998;55.788;37.572;2023-02-28T00:42:45;10.23;;;6.93;;
23642;SDS011;11998;55.788;37.572;2023-02-28T00:43:46;9.23;;;6.93;;
23642;SDS011;11998;55.788;37.572;2023-02-28T00:44:46;11.10;;;7.63;;
23642;SDS011;11998;55.788;37.572;2023-02-28T00:45:47;9.33;;;6.53;;
23642;SDS011;11998;55.788;37.572;2023-02-28T00:46:48;8.90;;;6.60;;
23642;SDS011;11998;55.788;37.572;2023-02-28T00:47:48;10.67;;;7.30;;
23642;SDS011;11998;55.788;37.572;2023-02-28T00:48:49;9.90;;;7.30;;
23642;SDS011;11998;55.788;37.572;2023-02-28T00:49:50;9.17;;;6.60;;
23642;SDS011;11998;55.788;37.572;2023-02-28T00:50:51;9.00;;;6.50;;
23642;SDS011;11998;55.788;37.572;2023-02-28T00:51:51;11.13;;;6.80;;
23642;SDS011;11998;55.788;37.572;2023-02-28T00:52:53;8.55;;;6.15;;
23642;SDS011;11998;55.788;37.572;2023-02-28T00:53:57;8.77;;;6.80;;
23642;SDS011;11998;55.788;37.572;2023-02-28T00:54:57;8.70;;;6.68;;
23642;SDS011;11998;55.788;37.572;2023-02-28T00:55:58;9.60;;;6.80;;
23642;SDS011;11998;55.788;37.572;2023-02-28T00:56:58;10.63;;;6.93;;
23642;SDS011;11998;55.788;37.572;2023-02-28T00:57:59;10.93;;;6.97;;
23642;SDS011;11998;55.788;37.572;2023-02-28T00:59:00;10.77;;;6.97;;
23642;SDS011;11998;55.788;37.572;2023-02-28T01:00:01;9.30;;;6.50;;
23642;SDS011;11998;55.788;37.572;2023-02-28T01:01:01;9.03;;;6.30;;
23642;SDS011;11998;55.788;37.572;2023-02-28T01:02:02;9.70;;;6.93;;
23642;SDS011;11998;55.788;37.572;2023-02-28T01:03:02;10.13;;;7.13;;
23642;SDS011;11998;55.788;37.572;2023-02-28T01:04:03;10.17;;;6.67;;
23642;SDS011;11998;55.788;37.572;2023-02-28T01:05:06;9.93;;;7.10;;
23642;SDS011;11998;55.788;37.572;2023-02-28T01:06:07;9.10;;;6.57;;
23642;SDS011;11998;55.788;37.572;2023-02-28T01:07:07;9.97;;;7.00;;
23642;SDS011;11998;55.788;37.572;2023-02-28T01:08:09;10.70;;;6.72;;
23642;SDS011;11998;55.788;37.572;2023-02-28T01:09:09;8.83;;;6.87;;
23642;SDS011;11998;55.788;37.572;2023-02-28T01:10:11;9.02;;;6.57;;
23642;SDS011;11998;55.788;37.572;2023-02-28T01:11:12;8.67;;;6.63;;
23642;SDS011;11998;55.788;37.572;2023-02-28T01:12:15;7.80;;;6.15;;
23642;SDS011;11998;55.788;37.572;2023-02-28T01:13:16;9.27;;;6.77;;
23642;SDS011;11998;55.788;37.572;2023-02-28T01:14:17;8.33;;;6.20;;
23642;SDS011;11998;55.788;37.572;2023-02-28T01:15:18;8.20;;;6.40;;
23642;SDS011;11998;55.788;37.572;2023-02-28T01:16:19;10.13;;;7.23;;
23642;SDS011;11998;55.788;37.572;2023-02-28T01:17:19;9.00;;;6.80;;
23642;SDS011;11998;55.788;37.572;2023-02-28T01:18:20;9.40;;;6.80;;
23642;SDS011;11998;55.788;37.572;2023-02-28T01:19:21;9.82;;;6.47;;
23642;SDS011;11998;55.788;37.572;2023-02-28T01:20:21;9.73;;;6.67;;
23642;SDS011;11998;55.788;37.572;2023-02-28T01:21:22;8.53;;;6.10;;
23642;SDS011;11998;55.788;37.572;2023-02-28T01:22:23;9.68;;;6.63;;
23642;SDS011;11998;55.788;37.572;2023-02-28T01:23:24;10.63;;;7.57;;
23642;SDS011;11998;55.788;37.572;2023-02-28T01:24:25;9.90;;;6.73;;
23642;SDS011;11998;55.788;37.572;2023-02-28T01:25:25;8.63;;;6.33;;
23642;SDS011;11998;55.788;37.572;2023-02-28T01:26:26;9.10;;;6.70;;
23642;SDS011;11998;55.788;37.572;2023-02-28T01:27:26;9.50;;;7.27;;
23642;SDS011;11998;55.788;37.572;2023-02-28T01:28:28;9.55;;;6.05;;
23642;SDS011;11998;55.788;37.572;2023-02-28T01:29:29;10.30;;;6.95;;
23642;SDS011;11998;55.788;37.572;2023-02-28T01:30:30;11.40;;;6.90;;
23642;SDS011;11998;55.788;37.572;2023-02-28T01:31:31;9.73;;;6.90;;
23642;SDS011;11998;55.788;37.572;2023-02-28T01:32:35;10.53;;;7.30;;
23642;SDS011;11998;55.788;37.572;2023-02-28T01:33:36;11.48;;;7.25;;
23642;SDS011;11998;55.788;37.572;2023-02-28T01:34:36;11.00;;;7.33;;
23642;SDS011;11998;55.788;37.572;2023-02-28T01:35:37;10.63;;;7.20;;
23642;SDS011;11998;55.788;37.572;2023-02-28T01:36:37;8.90;;;6.60;;
23642;SDS011;11998;55.788;37.572;2023-02-28T01:37:38;10.47;;;7.60;;
23642;SDS011;11998;55.788;37.572;2023-02-28T01:38:38;10.87;;;7.57;;
23642;SDS011;11998;55.788;37.572;2023-02-28T01:39:39;10.83;;;7.33;;
23642;SDS011;11998;55.788;37.572;2023-02-28T01:40:40;10.73;;;7.37;;
23642;SDS011;11998;55.788;37.572;2023-02-28T01:41:41;11.32;;;7.55;;
23642;SDS011;11998;55.788;37.572;2023-02-28T01:42:43;10.32;;;7.57;;
23642;SDS011;11998;55.788;37.572;2023-02-28T01:45:54;12.35;;;7.57;;
23642;SDS011;11998;55.788;37.572;2023-02-28T01:46:56;10.05;;;6.72;;
23642;SDS011;11998;55.788;37.572;2023-02-28T01:48:00;10.67;;;6.93;;
23642;SDS011;11998;55.788;37.572;2023-02-28T01:49:11;9.77;;;6.82;;
23642;SDS011;11998;55.788;37.572;2023-02-28T01:50:17;10.07;;;7.00;;
23642;SDS011;11998;55.788;37.572;2023-02-28T01:51:22;9.88;;;6.90;;
23642;SDS011;11998;55.788;37.572;2023-02-28T01:52:29;10.77;;;6.45;;
23642;SDS011;11998;55.788;37.572;2023-02-28T01:53:32;9.02;;;6.57;;
23642;SDS011;11998;55.788;37.572;2023-02-28T01:54:37;9.20;;;6.70;;
23642;SDS011;11998;55.788;37.572;2023-02-28T01:55:37;10.23;;;6.90;;
23642;SDS011;11998;55.788;37.572;2023-02-28T01:56:46;10.55;;;7.10;;
23642;SDS011;11998;55.788;37.572;2023-02-28T01:57:52;11.02;;;7.13;;
23642;SDS011;11998;55.788;37.572;2023-02-28T01:58:55;8.25;;;5.43;;
23642;SDS011;11998;55.788;37.572;2023-02-28T02:00:03;9.93;;;7.03;;
23642;SDS011;11998;55.788;37.572;2023-02-28T02:01:08;10.63;;;6.95;;
23642;SDS011;11998;55.788;37.572;2023-02-28T02:02:08;10.20;;;6.60;;
23642;SDS011;11998;55.788;37.572;2023-02-28T02:03:10;8.63;;;5.87;;
23642;SDS011;11998;55.788;37.572;2023-02-28T02:04:18;8.85;;;6.30;;
23642;SDS011;11998;55.788;37.572;2023-02-28T02:05:26;8.43;;;5.95;;
23642;SDS011;11998;55.788;37.572;2023-02-28T02:06:34;10.45;;;7.07;;
23642;SDS011;11998;55.788;37.572;2023-02-28T02:07:40;9.18;;;6.30;;
23642;SDS011;11998;55.788;37.572;2023-02-28T02:08:43;11.48;;;6.82;;
23642;SDS011;11998;55.788;37.572;2023-02-28T02:09:43;10.40;;;6.73;;
23642;SDS011;11998;55.788;37.572;2023-02-28T02:10:48;10.40;;;6.83;;
23642;SDS011;11998;55.788;37.572;2023-02-28T02:11:54;8.52;;;6.18;;
23642;SDS011;11998;55.788;37.572;2023-02-28T02:18:25;8.85;;;5.90;;
23642;SDS011;11998;55.788;37.572;2023-02-28T02:21:15;9.35;;;5.95;;
23642;SDS011;11998;55.788;37.572;2023-02-28T02:25:26;8.90;;;6.00;;
23642;SDS011;11998;55.788;37.572;2023-02-28T02:38:32;8.80;;;5.43;;
23642;SDS011;11998;55.788;37.572;2023-02-28T02:39:57;7.32;;;5.40;;
23642;SDS011;11998;55.788;37.572;2023-02-28T02:42:15;9.00;;;6.32;;
23642;SDS011;11998;55.788;37.572;2023-02-28T02:43:26;9.85;;;6.28;;
23642;SDS011;11998;55.788;37.572;2023-02-28T02:44:53;9.48;;;6.55;;
23642;SDS011;11998;55.788;37.572;2023-02-28T02:46:01;8.82;;;6.15;;
23642;SDS011;11998;55.788;37.572;2023-02-28T02:47:12;9.50;;;6.20;;
23642;SDS011;11998;55.788;37.572;2023-02-28T02:48:19;9.82;;;6.72;;
23642;SDS011;11998;55.788;37.572;2023-02-28T02:49:26;9.18;;;6.55;;
23642;SDS011;11998;55.788;37.572;2023-02-28T02:50:32;9.43;;;6.22;;
23642;SDS011;11998;55.788;37.572;2023-02-28T02:51:37;8.30;;;6.18;;
23642;SDS011;11998;55.788;37.572;2023-02-28T02:52:40;11.18;;;7.00;;
23642;SDS011;11998;55.788;37.572;2023-02-28T02:54:06;10.10;;;6.80;;
23642;SDS011;11998;55.788;37.572;2023-02-28T02:55:12;9.73;;;5.85;;
23642;SDS011;11998;55.788;37.572;2023-02-28T02:56:15;11.63;;;6.68;;
23642;SDS011;11998;55.788;37.572;2023-02-28T02:57:27;10.55;;;6.75;;
23642;SDS011;11998;55.788;37.572;2023-02-28T02:58:35;10.18;;;6.70;;
23642;SDS011;11998;55.788;37.572;2023-02-28T02:59:43;8.80;;;6.07;;
23642;SDS011;11998;55.788;37.572;2023-02-28T03:00:46;9.43;;;6.82;;
23642;SDS011;11998;55.788;37.572;2023-02-28T03:01:53;10.57;;;7.15;;
23642;SDS011;11998;55.788;37.572;2023-02-28T03:02:56;10.88;;;7.20;;
23642;SDS011;11998;55.788;37.572;2023-02-28T03:03:59;11.43;;;7.25;;
23642;SDS011;11998;55.788;37.572;2023-02-28T03:05:08;9.38;;;6.45;;
23642;SDS011;11998;55.788;37.572;2023-02-28T03:07:35;10.27;;;6.10;;
23642;SDS011;11998;55.788;37.572;2023-02-28T03:08:36;8.83;;;5.83;;
23642;SDS011;11998;55.788;37.572;2023-02-28T03:09:38;12.05;;;6.63;;
23642;SDS011;11998;55.788;37.572;2023-02-28T03:10:40;10.33;;;6.47;;
23642;SDS011;11998;55.788;37.572;2023-02-28T03:11:46;8.93;;;6.00;;
23642;SDS011;11998;55.788;37.572;2023-02-28T03:12:49;9.23;;;6.53;;
23642;SDS011;11998;55.788;37.572;2023-02-28T03:18:29;8.15;;;5.50;;
23642;SDS011;11998;55.788;37.572;2023-02-28T03:23:48;7.80;;;5.50;;
23642;SDS011;11998;55.788;37.572;2023-02-28T03:26:12;9.02;;;5.78;;
23642;SDS011;11998;55.788;37.572;2023-02-28T03:27:40;9.85;;;6.93;;
23642;SDS011;11998;55.788;37.572;2023-02-28T03:30:10;9.68;;;5.32;;
23642;SDS011;11998;55.788;37.572;2023-02-28T03:31:21;8.27;;;5.60;;
23642;SDS011;11998;55.788;37.572;2023-02-28T03:32:35;10.05;;;5.28;;
23642;SDS011;11998;55.788;37.572;2023-02-28T03:33:42;9.52;;;5.28;;
23642;SDS011;11998;55.788;37.572;2023-02-28T03:35:08;7.93;;;5.88;;
23642;SDS011;11998;55.788;37.572;2023-02-28T03:36:15;7.63;;;5.15;;
23642;SDS011;11998;55.788;37.572;2023-02-28T03:37:20;8.02;;;5.35;;
23642;SDS011;11998;55.788;37.572;2023-02-28T03:38:34;8.35;;;5.60;;
23642;SDS011;11998;55.788;37.572;2023-02-28T03:39:57;6.88;;;4.88;;
23642;SDS011;11998;55.788;37.572;2023-02-28T03:41:20;11.98;;;6.15;;
23642;SDS011;11998;55.788;37.572;2023-02-28T03:42:25;9.05;;;5.55;;
23642;SDS011;11998;55.788;37.572;2023-02-28T03:43:31;8.68;;;5.30;;
23642;SDS011;11998;55.788;37.572;2023-02-28T03:44:38;8.13;;;5.68;;
23642;SDS011;11998;55.788;37.572;2023-02-28T03:45:46;9.68;;;5.78;;
23642;SDS011;11998;55.788;37.572;2023-02-28T03:46:54;8.60;;;5.88;;
23642;SDS011;11998;55.788;37.572;2023-02-28T03:48:01;7.13;;;5.15;;
23642;SDS011;11998;55.788;37.572;2023-02-28T03:49:11;7.35;;;5.45;;
23642;SDS011;11998;55.788;37.572;2023-02-28T03:50:20;8.30;;;6.00;;
23642;SDS011;11998;55.788;37.572;2023-02-28T03:51:24;9.13;;;5.60;;
23642;SDS011;11998;55.788;37.572;2023-02-28T03:52:28;7.82;;;5.60;;
23642;SDS011;11998;55.788;37.572;2023-02-28T03:53:42;6.90;;;5.00;;
23642;SDS011;11998;55.788;37.572;2023-02-28T03:54:48;7.82;;;5.60;;
23642;SDS011;11998;55.788;37.572;2023-02-28T03:55:56;7.35;;;5.78;;
23642;SDS011;11998;55.788;37.572;2023-02-28T03:57:06;9.27;;;5.55;;
23642;SDS011;11998;55.788;37.572;2023-02-28T03:58:49;8.48;;;5.00;;
23642;SDS011;11998;55.788;37.572;2023-02-28T03:59:49;9.23;;;5.43;;
23642;SDS011;11998;55.788;37.572;2023-02-28T04:02:37;6.88;;;4.72;;
23642;SDS011;11998;55.788;37.572;2023-02-28T04:03:39;6.28;;;4.53;;
23642;SDS011;11998;55.788;37.572;2023-02-28T04:04:40;7.87;;;5.03;;
23642;SDS011;11998;55.788;37.572;2023-02-28T04:05:53;7.28;;;5.35;;
23642;SDS011;11998;55.788;37.572;2023-02-28T04:07:04;8.82;;;5.28;;
23642;SDS011;11998;55.788;37.572;2023-02-28T04:08:07;9.50;;;5.88;;
23642;SDS011;11998;55.788;37.572;2023-02-28T04:09:10;8.48;;;5.25;;
23642;SDS011;11998;55.788;37.572;2023-02-28T04:10:13;8.68;;;5.60;;
23642;SDS011;11998;55.788;37.572;2023-02-28T04:12:38;8.65;;;5.75;;
23642;SDS011;11998;55.788;37.572;2023-02-28T04:13:39;7.63;;;4.63;;
23642;SDS011;11998;55.788;37.572;2023-02-28T04:14:39;7.23;;;5.03;;
23642;SDS011;11998;55.788;37.572;2023-02-28T04:15:40;6.37;;;4.57;;
23642;SDS011;11998;55.788;37.572;2023-02-28T04:16:41;9.47;;;5.90;;
23642;SDS011;11998;55.788;37.572;2023-02-28T04:17:42;7.60;;;5.13;;
23642;SDS011;11998;55.788;37.572;2023-02-28T04:18:42;7.50;;;5.47;;
23642;SDS011;11998;55.788;37.572;2023-02-28T04:19:43;6.23;;;4.70;;
23642;SDS011;11998;55.788;37.572;2023-02-28T04:20:44;7.73;;;5.47;;
23642;SDS011;11998;55.788;37.572;2023-02-28T04:21:45;8.20;;;5.17;;
23642;SDS011;11998;55.788;37.572;2023-02-28T04:22:50;7.55;;;5.35;;
23642;SDS011;11998;55.788;37.572;2023-02-28T04:23:51;6.97;;;5.33;;
23642;SDS011;11998;55.788;37.572;2023-02-28T04:24:51;7.53;;;4.93;;
23642;SDS011;11998;55.788;37.572;2023-02-28T04:25:55;9.73;;;5.03;;
23642;SDS011;11998;55.788;37.572;2023-02-28T04:26:56;7.63;;;5.05;;
23642;SDS011;11998;55.788;37.572;2023-02-28T04:27:57;7.72;;;5.50;;
23642;SDS011;11998;55.788;37.572;2023-02-28T04:28:58;6.93;;;4.73;;
23642;SDS011;11998;55.788;37.572;2023-02-28T04:29:59;8.65;;;5.40;;
23642;SDS011;11998;55.788;37.572;2023-02-28T04:31:03;7.33;;;5.00;;
23642;SDS011;11998;55.788;37.572;2023-02-28T04:32:05;7.55;;;5.00;;
23642;SDS011;11998;55.788;37.572;2023-02-28T04:33:05;6.40;;;4.63;;
23642;SDS011;11998;55.788;37.572;2023-02-28T04:34:06;7.17;;;5.20;;
23642;SDS011;11998;55.788;37.572;2023-02-28T04:35:06;7.63;;;5.30;;
23642;SDS011;11998;55.788;37.572;2023-02-28T04:36:08;8.27;;;5.13;;
23642;SDS011;11998;55.788;37.572;2023-02-28T04:37:08;6.63;;;4.77;;
23642;SDS011;11998;55.788;37.572;2023-02-28T04:38:09;7.27;;;4.37;;
23642;SDS011;11998;55.788;37.572;2023-02-28T04:39:10;6.97;;;4.80;;
23642;SDS011;11998;55.788;37.572;2023-02-28T04:40:10;6.63;;;4.47;;
23642;SDS011;11998;55.788;37.572;2023-02-28T04:41:12;5.60;;;4.07;;
23642;SDS011;11998;55.788;37.572;2023-02-28T04:42:13;6.78;;;4.43;;
23642;SDS011;11998;55.788;37.572;2023-02-28T04:43:15;8.85;;;4.97;;
23642;SDS011;11998;55.788;37.572;2023-02-28T04:44:15;7.67;;;4.73;;
23642;SDS011;11998;55.788;37.572;2023-02-28T04:45:16;6.53;;;4.67;;
23642;SDS011;11998;55.788;37.572;2023-02-28T04:46:17;6.20;;;4.40;;
23642;SDS011;11998;55.788;37.572;2023-02-28T04:47:18;7.57;;;5.13;;
23642;SDS011;11998;55.788;37.572;2023-02-28T04:48:18;8.13;;;4.90;;
23642;SDS011;11998;55.788;37.572;2023-02-28T04:49:19;6.00;;;4.70;;
23642;SDS011;11998;55.788;37.572;2023-02-28T04:50:20;7.20;;;4.97;;
23642;SDS011;11998;55.788;37.572;2023-02-28T04:51:20;6.87;;;4.70;;
23642;SDS011;11998;55.788;37.572;2023-02-28T04:52:21;7.13;;;5.13;;
23642;SDS011;11998;55.788;37.572;2023-02-28T04:53:21;6.70;;;4.80;;
23642;SDS011;11998;55.788;37.572;2023-02-28T04:54:22;7.37;;;4.97;;
23642;SDS011;11998;55.788;37.572;2023-02-28T04:55:22;7.30;;;4.53;;
23642;SDS011;11998;55.788;37.572;2023-02-28T04:56:23;5.57;;;4.43;;
23642;SDS011;11998;55.788;37.572;2023-02-28T04:57:24;5.63;;;4.23;;
23642;SDS011;11998;55.788;37.572;2023-02-28T04:58:25;6.03;;;4.20;;
23642;SDS011;11998;55.788;37.572;2023-02-28T04:59:25;6.37;;;4.50;;
23642;SDS011;11998;55.788;37.572;2023-02-28T05:00:26;7.90;;;5.07;;
23642;SDS011;11998;55.788;37.572;2023-02-28T05:01:27;7.13;;;5.00;;
23642;SDS011;11998;55.788;37.572;2023-02-28T05:02:29;6.78;;;4.57;;
23642;SDS011;11998;55.788;37.572;2023-02-28T05:03:30;6.27;;;4.30;;
23642;SDS011;11998;55.788;37.572;2023-02-28T05:04:31;6.17;;;4.43;;
23642;SDS011;11998;55.788;37.572;2023-02-28T05:05:34;6.63;;;5.28;;
23642;SDS011;11998;55.788;37.572;2023-02-28T05:06:34;7.17;;;4.90;;
23642;SDS011;11998;55.788;37.572;2023-02-28T05:07:35;6.47;;;4.53;;
23642;SDS011;11998;55.788;37.572;2023-02-28T05:08:36;7.55;;;4.80;;
23642;SDS011;11998;55.788;37.572;2023-02-28T05:09:37;8.17;;;4.63;;
23642;SDS011;11998;55.788;37.572;2023-02-28T05:10:37;5.77;;;4.30;;
23642;SDS011;11998;55.788;37.572;2023-02-28T05:11:38;6.03;;;4.60;;
23642;SDS011;11998;55.788;37.572;2023-02-28T05:12:39;6.97;;;4.55;;
23642;SDS011;11998;55.788;37.572;2023-02-28T05:13:40;6.83;;;4.33;;
23642;SDS011;11998;55.788;37.572;2023-02-28T05:14:41;6.43;;;4.17;;
23642;SDS011;11998;55.788;37.572;2023-02-28T05:15:41;6.40;;;4.97;;
23642;SDS011;11998;55.788;37.572;2023-02-28T05:16:42;5.60;;;3.83;;
23642;SDS011;11998;55.788;37.572;2023-02-28T05:17:43;6.57;;;4.43;;
23642;SDS011;11998;55.788;37.572;2023-02-28T05:18:44;5.43;;;4.40;;
23642;SDS011;11998;55.788;37.572;2023-02-28T05:19:44;6.80;;;4.53;;
23642;SDS011;11998;55.788;37.572;2023-02-28T05:20:47;6.80;;;4.47;;
23642;SDS011;11998;55.788;37.572;2023-02-28T05:21:52;6.97;;;4.07;;
23642;SDS011;11998;55.788;37.572;2023-02-28T05:22:54;7.28;;;4.43;;
23642;SDS011;11998;55.788;37.572;2023-02-28T05:23:55;7.63;;;4.70;;
23642;SDS011;11998;55.788;37.572;2023-02-28T05:24:57;5.63;;;4.40;;
23642;SDS011;11998;55.788;37.572;2023-02-28T05:25:58;8.13;;;4.97;;
23642;SDS011;11998;55.788;37.572;2023-02-28T05:26:58;6.13;;;3.93;;
23642;SDS011;11998;55.788;37.572;2023-02-28T05:27:59;6.63;;;4.37;;
23642;SDS011;11998;55.788;37.572;2023-02-28T05:29:00;5.97;;;4.30;;
23642;SDS011;11998;55.788;37.572;2023-02-28T05:30:00;5.77;;;3.97;;
23642;SDS011;11998;55.788;37.572;2023-02-28T05:31:03;5.30;;;3.85;;
23642;SDS011;11998;55.788;37.572;2023-02-28T05:32:10;7.17;;;4.70;;
23642;SDS011;11998;55.788;37.572;2023-02-28T05:33:11;8.90;;;4.10;;
23642;SDS011;11998;55.788;37.572;2023-02-28T05:34:13;6.13;;;4.28;;
23642;SDS011;11998;55.788;37.572;2023-02-28T05:35:15;6.60;;;4.60;;
23642;SDS011;11998;55.788;37.572;2023-02-28T05:36:16;6.77;;;4.23;;
23642;SDS011;11998;55.788;37.572;2023-02-28T05:37:16;5.83;;;4.30;;
23642;SDS011;11998;55.788;37.572;2023-02-28T05:38:17;5.77;;;4.20;;
23642;SDS011;11998;55.788;37.572;2023-02-28T05:39:17;6.53;;;4.27;;
23642;SDS011;11998;55.788;37.572;2023-02-28T05:40:18;6.83;;;4.70;;
23642;SDS011;11998;55.788;37.572;2023-02-28T05:41:22;4.90;;;3.83;;
23642;SDS011;11998;55.788;37.572;2023-02-28T05:42:23;4.90;;;3.70;;
23642;SDS011;11998;55.788;37.572;2023-02-28T05:43:24;5.67;;;4.23;;
23642;SDS011;11998;55.788;37.572;2023-02-28T05:44:27;6.85;;;4.15;;
23642;SDS011;11998;55.788;37.572;2023-02-28T05:45:27;5.83;;;3.87;;
23642;SDS011;11998;55.788;37.572;2023-02-28T05:46:28;5.70;;;3.90;;
23642;SDS011;11998;55.788;37.572;2023-02-28T05:47:28;5.93;;;4.37;;
23642;SDS011;11998;55.788;37.572;2023-02-28T05:48:29;4.90;;;3.87;;
23642;SDS011;11998;55.788;37.572;2023-02-28T05:49:30;6.43;;;4.03;;
23642;SDS011;11998;55.788;37.572;2023-02-28T05:50:34;4.97;;;3.60;;
23642;SDS011;11998;55.788;37.572;2023-02-28T05:51:34;5.82;;;3.70;;
23642;SDS011;11998;55.788;37.572;2023-02-28T05:52:36;4.82;;;3.75;;
23642;SDS011;11998;55.788;37.572;2023-02-28T05:53:37;4.88;;;3.72;;
23642;SDS011;11998;55.788;37.572;2023-02-28T05:54:37;6.27;;;4.47;;
23642;SDS011;11998;55.788;37.572;2023-02-28T05:55:38;5.90;;;4.30;;
23642;SDS011;11998;55.788;37.572;2023-02-28T05:56:39;6.53;;;4.20;;
23642;SDS011;11998;55.788;37.572;2023-02-28T05:57:40;7.57;;;4.63;;
23642;SDS011;11998;55.788;37.572;2023-02-28T05:58:41;6.20;;;4.73;;
23642;SDS011;11998;55.788;37.572;2023-02-28T05:59:41;5.40;;;4.23;;
23642;SDS011;11998;55.788;37.572;2023-02-28T06:00:42;5.80;;;3.90;;
23642;SDS011;11998;55.788;37.572;2023-02-28T06:01:45;4.70;;;3.80;;
23642;SDS011;11998;55.788;37.572;2023-02-28T06:02:51;6.75;;;4.18;;
23642;SDS011;11998;55.788;37.572;2023-02-28T06:03:56;4.28;;;3.63;;
23642;SDS011;11998;55.788;37.572;2023-02-28T06:04:56;6.47;;;4.00;;
23642;SDS011;11998;55.788;37.572;2023-02-28T06:05:57;6.77;;;4.30;;
23642;SDS011;11998;55.788;37.572;2023-02-28T06:06:57;5.33;;;4.00;;
23642;SDS011;11998;55.788;37.572;2023-02-28T06:07:59;5.17;;;3.97;;
23642;SDS011;11998;55.788;37.572;2023-02-28T06:09:00;5.38;;;4.18;;
23642;SDS011;11998;55.788;37.572;2023-02-28T06:10:00;6.13;;;3.80;;
23642;SDS011;11998;55.788;37.572;2023-02-28T06:11:04;4.50;;;3.40;;
23642;SDS011;11998;55.788;37.572;2023-02-28T06:12:05;3.80;;;3.08;;
23642;SDS011;11998;55.788;37.572;2023-02-28T06:13:07;6.70;;;3.80;;
23642;SDS011;11998;55.788;37.572;2023-02-28T06:14:09;5.03;;;3.67;;
23642;SDS011;11998;55.788;37.572;2023-02-28T06:15:15;4.43;;;3.70;;
23642;SDS011;11998;55.788;37.572;2023-02-28T06:16:16;4.88;;;4.00;;
23642;SDS011;11998;55.788;37.572;2023-02-28T06:17:17;4.60;;;4.20;;
23642;SDS011;11998;55.788;37.572;2023-02-28T06:18:18;4.40;;;3.93;;
23642;SDS011;11998;55.788;37.572;2023-02-28T06:19:18;4.40;;;3.87;;
23642;SDS011;11998;55.788;37.572;2023-02-28T06:20:19;4.53;;;3.73;;
23642;SDS011;11998;55.788;37.572;2023-02-28T06:21:19;5.03;;;4.27;;
23642;SDS011;11998;55.788;37.572;2023-02-28T06:22:20;5.03;;;3.20;;
23642;SDS011;11998;55.788;37.572;2023-02-28T06:23:21;4.17;;;3.50;;
23642;SDS011;11998;55.788;37.572;2023-02-28T06:24:22;5.18;;;4.20;;
23642;SDS011;11998;55.788;37.572;2023-02-28T06:25:27;6.10;;;4.28;;
23642;SDS011;11998;55.788;37.572;2023-02-28T06:26:28;6.40;;;4.88;;
23642;SDS011;11998;55.788;37.572;2023-02-28T06:27:28;4.50;;;3.50;;
23642;SDS011;11998;55.788;37.572;2023-02-28T06:28:29;4.93;;;3.53;;
23642;SDS011;11998;55.788;37.572;2023-02-28T06:29:33;5.57;;;4.10;;
23642;SDS011;11998;55.788;37.572;2023-02-28T06:30:36;5.32;;;3.97;;
23642;SDS011;11998;55.788;37.572;2023-02-28T06:31:37;5.32;;;3.97;;
23642;SDS011;11998;55.788;37.572;2023-02-28T06:32:38;5.03;;;3.80;;
23642;SDS011;11998;55.788;37.572;2023-02-28T06:33:40;5.40;;;4.05;;
23642;SDS011;11998;55.788;37.572;2023-02-28T06:34:41;4.15;;;3.50;;
23642;SDS011;11998;55.788;37.572;2023-02-28T06:35:44;4.00;;;3.43;;
23642;SDS011;11998;55.788;37.572;2023-02-28T06:36:47;4.97;;;3.20;;
23642;SDS011;11998;55.788;37.572;2023-02-28T06:37:51;4.75;;;3.80;;
23642;SDS011;11998;55.788;37.572;2023-02-28T06:38:51;4.50;;;4.10;;
23642;SDS011;11998;55.788;37.572;2023-02-28T06:39:54;5.78;;;3.63;;
23642;SDS011;11998;55.788;37.572;2023-02-28T06:40:59;4.68;;;3.45;;
23642;SDS011;11998;55.788;37.572;2023-02-28T06:42:00;4.75;;;3.70;;
23642;SDS011;11998;55.788;37.572;2023-02-28T06:43:03;4.07;;;3.40;;
23642;SDS011;11998;55.788;37.572;2023-02-28T06:44:04;4.95;;;3.63;;
23642;SDS011;11998;55.788;37.572;2023-02-28T06:45:11;4.38;;;3.97;;
23642;SDS011;11998;55.788;37.572;2023-02-28T06:46:12;5.07;;;3.73;;
23642;SDS011;11998;55.788;37.572;2023-02-28T06:47:14;5.05;;;3.80;;
23642;SDS011;11998;55.788;37.572;2023-02-28T06:48:15;6.73;;;4.07;;
23642;SDS011;11998;55.788;37.572;2023-02-28T06:49:15;6.23;;;3.83;;
23642;SDS011;11998;55.788;37.572;2023-02-28T06:50:16;4.60;;;3.67;;
23642;SDS011;11998;55.788;37.572;2023-02-28T06:51:20;5.97;;;3.22;;
23642;SDS011;11998;55.788;37.572;2023-02-28T06:52:22;4.65;;;3.80;;
23642;SDS011;11998;55.788;37.572;2023-02-28T06:53:22;9.53;;;6.27;;
23642;SDS011;11998;55.788;37.572;2023-02-28T06:54:23;5.23;;;3.80;;